createdAt,value
2022-08-26T00:02:12.703Z,11.30
2022-08-26T00:04:40.906Z,11.80
2022-08-26T00:07:09.148Z,12.90
2022-08-26T00:12:12.158Z,14.65
2022-08-26T00:14:40.575Z,13.40
2022-08-26T00:17:08.617Z,14.60
2022-08-26T00:19:36.576Z,15.15
2022-08-26T00:24:32.823Z,18.35
2022-08-26T00:27:00.754Z,14.40
2022-08-26T00:29:29.167Z,12.80
2022-08-26T00:31:59.875Z,15.13
2022-08-26T00:34:28.200Z,11.55
2022-08-26T00:36:56.808Z,15.80
2022-08-26T00:39:24.858Z,13.35
2022-08-26T00:41:53.183Z,10.65
2022-08-26T00:44:21.783Z,9.02
2022-08-26T00:46:53.570Z,10.90
2022-08-26T00:49:51.518Z,12.85
2022-08-26T00:52:22.199Z,12.55
2022-08-26T00:55:04.167Z,12.38
2022-08-26T00:57:34.207Z,11.60
2022-08-26T01:00:08.209Z,11.10
2022-08-26T01:02:36.711Z,13.25
2022-08-26T01:05:07.030Z,14.75
2022-08-26T01:07:35.927Z,15.70
2022-08-26T01:10:10.752Z,13.38
2022-08-26T01:12:49.631Z,20.48
2022-08-26T01:15:23.775Z,15.57
2022-08-26T01:17:52.099Z,13.40
2022-08-26T01:20:34.230Z,10.20
2022-08-26T01:23:05.915Z,15.80
2022-08-26T01:25:40.694Z,13.00
2022-08-26T01:28:15.665Z,10.95
2022-08-26T01:30:47.507Z,10.13
2022-08-26T01:33:19.279Z,13.80
2022-08-26T01:35:47.996Z,15.68
2022-08-26T01:38:17.971Z,16.55
2022-08-26T01:40:46.103Z,15.25
2022-08-26T01:43:19.549Z,14.98
2022-08-26T01:45:49.603Z,16.63
2022-08-26T01:48:23.263Z,12.30
2022-08-26T01:50:52.903Z,14.30
2022-08-26T01:53:23.773Z,22.70
2022-08-26T01:55:56.091Z,12.77
2022-08-26T01:58:30.787Z,14.65
2022-08-26T02:00:59.225Z,17.60
2022-08-26T02:03:28.330Z,18.95
2022-08-26T02:06:03.952Z,13.00
2022-08-26T02:08:44.755Z,15.13
2022-08-26T02:11:13.601Z,12.05
2022-08-26T02:13:55.563Z,17.60
2022-08-26T02:16:26.111Z,17.05
2022-08-26T02:18:55.586Z,19.17
2022-08-26T02:21:25.049Z,22.85
2022-08-26T02:23:56.256Z,17.08
2022-08-26T02:26:26.817Z,22.40
2022-08-26T02:29:02.050Z,22.45
2022-08-26T02:31:30.121Z,18.50
2022-08-26T02:34:09.292Z,20.92
2022-08-26T02:36:39.390Z,17.73
2022-08-26T02:39:08.008Z,23.52
2022-08-26T02:41:44.900Z,14.40
2022-08-26T02:44:13.364Z,20.27
2022-08-26T02:46:42.248Z,19.88
2022-08-26T02:49:16.913Z,25.00
2022-08-26T02:51:45.564Z,20.40
2022-08-26T02:54:14.069Z,16.70
2022-08-26T02:56:42.389Z,15.73
2022-08-26T02:59:12.718Z,17.38
2022-08-26T03:01:41.813Z,18.05
2022-08-26T03:04:12.539Z,19.45
2022-08-26T03:06:41.626Z,19.48
2022-08-26T03:09:09.663Z,22.90
2022-08-26T03:11:37.873Z,18.13
2022-08-26T03:14:05.482Z,14.70
2022-08-26T03:19:03.664Z,12.50
2022-08-26T03:21:31.663Z,14.07
2022-08-26T03:24:00.394Z,19.98
2022-08-26T03:26:28.875Z,11.43
2022-08-26T03:29:15.650Z,15.07
2022-08-26T03:31:44.379Z,16.80
2022-08-26T03:34:15.654Z,12.60
2022-08-26T03:36:43.681Z,14.90
2022-08-26T03:39:13.181Z,17.67
2022-08-26T03:41:41.892Z,17.92
2022-08-26T03:44:09.706Z,16.25
2022-08-26T03:46:38.813Z,18.98
2022-08-26T03:49:07.166Z,22.45
2022-08-26T03:51:38.703Z,17.88
2022-08-26T03:54:08.535Z,24.67
2022-08-26T03:56:37.367Z,20.55
2022-08-26T03:59:07.846Z,18.33
2022-08-26T04:01:35.790Z,19.42
2022-08-26T04:04:04.305Z,15.57
2022-08-26T04:06:40.262Z,13.55
2022-08-26T04:09:12.039Z,14.30
2022-08-26T04:11:41.966Z,14.73
2022-08-26T04:14:14.366Z,18.20
2022-08-26T04:16:48.445Z,17.38
2022-08-26T04:19:17.325Z,20.08
2022-08-26T04:21:45.973Z,21.77
2022-08-26T04:24:15.681Z,21.80
2022-08-26T04:26:44.107Z,18.20
2022-08-26T04:29:19.010Z,17.55
2022-08-26T04:31:50.034Z,21.35
2022-08-26T04:34:28.746Z,22.48
2022-08-26T04:36:58.678Z,32.47
2022-08-26T04:39:27.541Z,35.45
2022-08-26T04:41:55.744Z,23.35
2022-08-26T04:44:27.835Z,16.67
2022-08-26T04:46:56.831Z,17.45
2022-08-26T04:49:26.096Z,21.35
2022-08-26T04:51:55.354Z,18.75
2022-08-26T04:54:23.676Z,17.70
2022-08-26T04:56:53.282Z,17.65
2022-08-26T05:01:52.252Z,24.48
2022-08-26T05:04:21.127Z,21.77
2022-08-26T05:06:50.063Z,21.10
2022-08-26T05:09:20.815Z,26.63
2022-08-26T05:11:52.007Z,20.10
2022-08-26T05:14:23.311Z,21.73
2022-08-26T05:16:51.534Z,20.27
2022-08-26T05:19:19.776Z,24.00
2022-08-26T05:21:49.585Z,23.23
2022-08-26T05:24:18.003Z,30.70
2022-08-26T05:26:46.855Z,32.08
2022-08-26T05:29:14.648Z,30.20
2022-08-26T05:31:42.785Z,29.13
2022-08-26T05:36:39.071Z,25.77
2022-08-26T05:39:07.654Z,27.08
2022-08-26T05:41:41.039Z,26.58
2022-08-26T05:44:11.959Z,44.42
2022-08-26T05:46:41.785Z,25.10
2022-08-26T05:49:12.834Z,26.35
2022-08-26T05:51:45.007Z,21.10
2022-08-26T05:54:14.076Z,19.58
2022-08-26T05:56:49.978Z,23.35
2022-08-26T05:59:21.407Z,26.05
2022-08-26T06:01:53.405Z,23.58
2022-08-26T06:04:24.994Z,26.10
2022-08-26T06:06:58.198Z,24.25
2022-08-26T06:09:27.006Z,25.13
2022-08-26T06:11:55.943Z,30.48
2022-08-26T06:14:23.630Z,24.40
2022-08-26T06:16:52.019Z,23.10
2022-08-26T06:19:20.118Z,30.77
2022-08-26T06:21:54.695Z,28.55
2022-08-26T06:24:41.740Z,25.23
2022-08-26T06:27:13.659Z,27.38
2022-08-26T06:29:41.911Z,27.63
2022-08-26T06:32:09.556Z,35.17
2022-08-26T06:34:37.431Z,30.30
2022-08-26T06:37:06.452Z,26.73
2022-08-26T06:39:34.672Z,29.15
2022-08-26T06:42:03.387Z,30.33
2022-08-26T06:44:34.957Z,33.88
2022-08-26T06:47:02.703Z,31.05
2022-08-26T06:49:30.436Z,32.60
2022-08-26T06:51:58.511Z,31.17
2022-08-26T06:54:27.769Z,23.95
2022-08-26T06:56:57.220Z,35.30
2022-08-26T06:59:25.617Z,34.15
2022-08-26T07:01:54.762Z,29.83
2022-08-26T07:04:24.566Z,29.35
2022-08-26T07:06:53.847Z,23.38
2022-08-26T07:09:24.172Z,27.50
2022-08-26T07:11:53.010Z,31.73
2022-08-26T07:14:21.893Z,26.70
2022-08-26T07:16:50.606Z,27.00
2022-08-26T07:19:30.066Z,20.45
2022-08-26T07:22:04.166Z,26.00
2022-08-26T07:24:38.310Z,23.40
2022-08-26T07:27:09.218Z,23.60
2022-08-26T07:29:39.537Z,15.27
2022-08-26T07:32:08.531Z,14.02
2022-08-26T07:34:41.891Z,19.05
2022-08-26T07:37:10.003Z,21.27
2022-08-26T07:42:09.721Z,21.95
2022-08-26T07:44:38.281Z,15.63
2022-08-26T07:47:10.568Z,25.63
2022-08-26T07:52:28.103Z,15.75
2022-08-26T07:55:01.012Z,15.40
2022-08-26T07:57:29.318Z,15.45
2022-08-26T07:59:57.902Z,28.65
2022-08-26T08:02:27.311Z,17.02
2022-08-26T08:04:56.770Z,15.52
2022-08-26T08:07:38.526Z,17.85
2022-08-26T08:12:46.516Z,17.73
2022-08-26T08:17:43.816Z,12.40
2022-08-26T08:20:13.455Z,19.85
2022-08-26T08:22:43.153Z,19.20
2022-08-26T08:25:12.179Z,13.18
2022-08-26T08:27:42.354Z,11.90
2022-08-26T08:30:13.639Z,14.32
2022-08-26T08:32:43.779Z,17.67
2022-08-26T08:35:14.628Z,20.25
2022-08-26T08:37:44.803Z,13.00
2022-08-26T08:40:18.841Z,19.08
2022-08-26T08:43:04.040Z,10.60
2022-08-26T08:45:37.204Z,14.95
2022-08-26T08:48:36.962Z,13.98
2022-08-26T08:51:28.177Z,15.98
2022-08-26T08:53:56.920Z,17.65
2022-08-26T08:56:33.334Z,20.40
2022-08-26T08:59:11.439Z,34.63
2022-08-26T09:01:52.487Z,12.75
2022-08-26T09:04:42.081Z,12.18
2022-08-26T09:07:16.038Z,15.37
2022-08-26T09:10:24.714Z,10.55
2022-08-26T09:12:53.087Z,13.27
2022-08-26T09:15:52.915Z,14.27
2022-08-26T09:18:39.417Z,18.23
2022-08-26T09:21:19.550Z,17.67
2022-08-26T09:23:49.620Z,7.85
2022-08-26T09:26:30.772Z,29.63
2022-08-26T09:29:05.006Z,17.88
2022-08-26T09:31:36.264Z,11.30
2022-08-26T09:34:24.362Z,16.75
2022-08-26T09:36:58.496Z,14.57
2022-08-26T09:39:38.557Z,9.70
2022-08-26T09:42:22.641Z,12.00
2022-08-26T09:45:03.786Z,13.48
2022-08-26T09:47:39.353Z,12.05
2022-08-26T09:50:46.735Z,15.52
2022-08-26T09:56:26.024Z,14.82
2022-08-26T09:58:56.789Z,18.33
2022-08-26T10:01:30.490Z,15.90
2022-08-26T10:04:14.911Z,10.35
2022-08-26T10:07:04.916Z,17.10
2022-08-26T10:09:43.484Z,20.23
2022-08-26T10:12:17.060Z,12.25
2022-08-26T10:14:53.934Z,16.02
2022-08-26T10:17:34.425Z,15.00
2022-08-26T10:20:23.457Z,19.92
2022-08-26T10:23:07.020Z,17.45
2022-08-26T10:25:45.153Z,13.23
2022-08-26T10:28:38.607Z,14.82
2022-08-26T10:31:27.738Z,14.50
2022-08-26T10:34:00.064Z,12.77
2022-08-26T10:37:15.065Z,20.27
2022-08-26T10:40:08.741Z,9.35
2022-08-26T10:42:46.824Z,7.43
2022-08-26T10:45:20.103Z,11.38
2022-08-26T10:48:05.332Z,13.55
2022-08-26T10:50:35.269Z,14.35
2022-08-26T10:53:16.856Z,10.70
2022-08-26T10:56:19.082Z,15.20
2022-08-26T10:59:15.251Z,17.45
2022-08-26T11:01:59.927Z,13.52
2022-08-26T11:04:57.288Z,17.83
2022-08-26T11:07:41.339Z,16.00
2022-08-26T11:10:12.196Z,18.98
2022-08-26T11:12:40.092Z,10.57
2022-08-26T11:15:10.233Z,19.23
2022-08-26T11:17:47.379Z,10.95
2022-08-26T11:20:31.395Z,9.93
2022-08-26T11:23:22.476Z,8.40
2022-08-26T11:25:59.714Z,14.93
2022-08-26T11:28:46.088Z,12.75
2022-08-26T11:31:27.469Z,11.23
2022-08-26T11:34:07.183Z,9.98
2022-08-26T11:36:49.218Z,13.60
2022-08-26T11:39:26.154Z,13.73
2022-08-26T11:41:57.838Z,14.50
2022-08-26T11:44:41.412Z,12.15
2022-08-26T11:47:27.190Z,14.85
2022-08-26T11:50:20.740Z,11.77
2022-08-26T11:52:57.355Z,10.57
2022-08-26T11:55:25.206Z,8.30
2022-08-26T12:00:33.461Z,8.70
2022-08-26T12:03:08.523Z,11.77
2022-08-26T12:05:43.732Z,11.23
2022-08-26T12:08:16.616Z,15.07
2022-08-26T12:10:45.058Z,13.27
2022-08-26T12:13:26.246Z,10.38
2022-08-26T12:15:58.789Z,12.88
2022-08-26T12:18:34.598Z,12.52
2022-08-26T12:21:24.632Z,10.88
2022-08-26T12:23:55.016Z,12.18
2022-08-26T12:26:35.285Z,11.52
2022-08-26T12:29:13.186Z,12.20
2022-08-26T12:31:50.237Z,9.55
2022-08-26T12:34:18.732Z,12.48
2022-08-26T12:36:48.250Z,6.93
2022-08-26T12:39:26.853Z,10.90
2022-08-26T12:42:17.232Z,9.05
2022-08-26T12:45:00.873Z,9.00
2022-08-26T12:47:42.645Z,9.95
2022-08-26T12:50:26.501Z,10.93
2022-08-26T12:53:04.591Z,13.88
2022-08-26T12:55:58.670Z,7.65
2022-08-26T12:58:27.956Z,15.10
2022-08-26T13:01:22.459Z,13.25
2022-08-26T13:03:50.969Z,10.20
2022-08-26T13:06:29.568Z,12.02
2022-08-26T13:09:09.423Z,12.43
2022-08-26T13:11:40.419Z,9.52
2022-08-26T13:14:12.222Z,11.07
2022-08-26T13:16:46.967Z,12.60
2022-08-26T13:19:20.834Z,11.35
2022-08-26T13:21:54.649Z,11.45
2022-08-26T13:24:36.111Z,14.23
2022-08-26T13:27:08.304Z,10.68
2022-08-26T13:29:36.364Z,8.43
2022-08-26T13:32:06.217Z,11.95
2022-08-26T13:34:36.944Z,7.05
2022-08-26T13:37:08.953Z,8.23
2022-08-26T13:39:45.072Z,9.48
2022-08-26T13:42:14.921Z,8.70
2022-08-26T13:44:44.431Z,13.15
2022-08-26T13:47:15.040Z,12.50
2022-08-26T13:49:46.543Z,8.27
2022-08-26T13:52:17.074Z,11.15
2022-08-26T13:54:57.441Z,8.25
2022-08-26T13:57:27.970Z,21.85
2022-08-26T13:59:57.223Z,9.70
2022-08-26T14:02:25.989Z,9.52
2022-08-26T14:04:55.572Z,9.35
2022-08-26T14:07:24.077Z,9.50
2022-08-26T14:09:53.659Z,6.53
2022-08-26T14:12:23.021Z,6.68
2022-08-26T14:14:50.855Z,6.13
2022-08-26T14:17:22.857Z,10.38
2022-08-26T14:19:51.330Z,10.40
2022-08-26T14:22:21.714Z,7.45
2022-08-26T14:24:51.045Z,5.78
2022-08-26T14:27:18.684Z,9.18
2022-08-26T14:29:46.415Z,6.95
2022-08-26T14:32:25.135Z,8.95
2022-08-26T14:34:53.868Z,11.70
2022-08-26T14:37:22.801Z,9.13
2022-08-26T14:39:51.433Z,5.70
2022-08-26T14:42:27.967Z,7.68
2022-08-26T14:45:02.079Z,6.30
2022-08-26T14:47:31.671Z,6.50
2022-08-26T14:49:59.526Z,6.40
2022-08-26T14:52:27.782Z,6.22
2022-08-26T14:54:55.678Z,5.63
2022-08-26T14:57:23.416Z,6.93
2022-08-26T14:59:51.304Z,5.82
2022-08-26T15:02:27.811Z,6.70
2022-08-26T15:05:02.897Z,7.05
2022-08-26T15:07:30.681Z,7.22
2022-08-26T15:09:58.521Z,10.05
2022-08-26T15:12:27.833Z,6.57
2022-08-26T15:14:56.348Z,5.43
2022-08-26T15:17:24.729Z,6.32
2022-08-26T15:19:54.120Z,4.93
2022-08-26T15:22:21.878Z,5.15
2022-08-26T15:24:53.716Z,5.00
2022-08-26T15:27:23.019Z,5.05
2022-08-26T15:29:51.807Z,6.03
2022-08-26T15:32:19.581Z,5.28
2022-08-26T15:34:47.542Z,5.35
2022-08-26T15:37:15.444Z,7.35
2022-08-26T15:39:44.734Z,5.22
2022-08-26T15:42:15.620Z,3.55
2022-08-26T15:44:45.509Z,3.20
2022-08-26T15:47:14.901Z,3.75
2022-08-26T15:49:45.441Z,5.72
2022-08-26T15:52:13.248Z,8.40
2022-08-26T15:54:45.571Z,5.03
2022-08-26T15:57:17.601Z,7.40
2022-08-26T15:59:48.246Z,5.32
2022-08-26T16:02:16.137Z,7.28
2022-08-26T16:04:44.365Z,2.97
2022-08-26T16:07:15.370Z,3.95
2022-08-26T16:09:43.997Z,5.82
2022-08-26T16:12:12.908Z,5.57
2022-08-26T16:14:41.758Z,3.97
2022-08-26T16:17:10.121Z,6.68
2022-08-26T16:19:37.919Z,5.43
2022-08-26T16:22:09.180Z,6.57
2022-08-26T16:24:39.697Z,5.72
2022-08-26T16:27:07.752Z,3.13
2022-08-26T16:29:38.448Z,3.33
2022-08-26T16:32:08.954Z,6.43
2022-08-26T16:34:36.860Z,4.05
2022-08-26T16:37:04.893Z,4.00
2022-08-26T16:39:33.905Z,5.38
2022-08-26T16:42:08.405Z,5.57
2022-08-26T16:44:44.526Z,4.43
2022-08-26T16:47:21.370Z,6.43
2022-08-26T16:49:49.507Z,4.40
2022-08-26T16:52:17.870Z,7.78
2022-08-26T16:54:45.678Z,5.93
2022-08-26T16:57:13.870Z,4.50
2022-08-26T16:59:44.719Z,3.90
2022-08-26T17:02:12.743Z,4.65
2022-08-26T17:04:41.375Z,4.07
2022-08-26T17:07:13.823Z,4.82
2022-08-26T17:09:43.208Z,4.03
2022-08-26T17:12:11.304Z,3.00
2022-08-26T17:14:39.215Z,4.47
2022-08-26T17:17:07.569Z,4.28
2022-08-26T17:19:41.043Z,5.55
2022-08-26T17:22:15.642Z,3.88
2022-08-26T17:24:44.795Z,4.70
2022-08-26T17:27:12.982Z,3.50
2022-08-26T17:29:41.071Z,5.88
2022-08-26T17:32:09.302Z,3.80
2022-08-26T17:34:37.763Z,7.15
2022-08-26T17:37:06.097Z,8.45
2022-08-26T17:39:36.119Z,7.15
2022-08-26T17:42:05.053Z,2.95
2022-08-26T17:44:32.822Z,4.13
2022-08-26T17:47:00.730Z,4.60
2022-08-26T17:49:28.865Z,3.15
2022-08-26T17:51:59.273Z,5.28
2022-08-26T17:54:27.808Z,3.88
2022-08-26T17:56:58.080Z,4.22
2022-08-26T17:59:30.477Z,4.05
2022-08-26T18:01:59.301Z,3.53
2022-08-26T18:04:27.913Z,6.28
2022-08-26T18:06:56.384Z,4.40
2022-08-26T18:09:25.713Z,4.78
2022-08-26T18:11:53.587Z,3.45
2022-08-26T18:14:22.107Z,5.35
2022-08-26T18:16:51.093Z,4.85
2022-08-26T18:19:20.048Z,5.38
2022-08-26T18:21:50.418Z,5.18
2022-08-26T18:24:18.462Z,4.90
2022-08-26T18:26:49.649Z,3.08
2022-08-26T18:29:19.556Z,4.30
2022-08-26T18:31:48.924Z,5.18
2022-08-26T18:34:17.045Z,7.25
2022-08-26T18:36:45.194Z,8.00
2022-08-26T18:39:16.089Z,4.05
2022-08-26T18:41:53.312Z,6.65
2022-08-26T18:44:23.832Z,4.45
2022-08-26T18:46:52.331Z,5.60
2022-08-26T18:49:21.234Z,5.82
2022-08-26T18:51:51.202Z,5.60
2022-08-26T18:56:50.084Z,5.88
2022-08-26T18:59:18.537Z,7.85
2022-08-26T19:01:49.646Z,10.63
2022-08-26T19:04:18.716Z,8.25
2022-08-26T19:06:49.222Z,3.85
2022-08-26T19:09:18.295Z,6.18
2022-08-26T19:11:47.461Z,8.57
2022-08-26T19:14:18.683Z,7.63
2022-08-26T19:16:48.925Z,7.82
2022-08-26T19:19:17.282Z,11.73
2022-08-26T19:21:46.016Z,15.10
2022-08-26T19:24:17.669Z,36.72
2022-08-26T19:26:48.830Z,18.35
2022-08-26T19:31:47.234Z,10.23
2022-08-26T19:34:17.489Z,8.63
2022-08-26T19:36:49.097Z,33.72
2022-08-26T19:39:16.932Z,80.68
2022-08-26T19:44:36.937Z,15.73
2022-08-26T19:47:07.232Z,11.82
2022-08-26T19:49:35.172Z,10.88
2022-08-26T19:54:31.318Z,12.88
2022-08-26T19:56:59.082Z,8.82
2022-08-26T19:59:26.861Z,12.43
2022-08-26T20:02:00.992Z,10.27
2022-08-26T20:04:31.293Z,10.13
2022-08-26T20:07:01.714Z,11.20
2022-08-26T20:09:34.291Z,9.35
2022-08-26T20:12:03.715Z,6.60
2022-08-26T20:14:33.849Z,8.95
2022-08-26T20:17:03.224Z,8.70
2022-08-26T20:19:49.983Z,5.82
2022-08-26T20:22:18.691Z,6.93
2022-08-26T20:24:47.026Z,4.25
2022-08-26T20:27:15.558Z,7.05
2022-08-26T20:29:43.468Z,8.77
2022-08-26T20:32:12.152Z,15.10
2022-08-26T20:34:40.239Z,13.30
2022-08-26T20:37:08.574Z,9.93
2022-08-26T20:39:36.580Z,11.88
2022-08-26T20:42:06.681Z,12.52
2022-08-26T20:44:54.685Z,13.43
2022-08-26T20:47:23.590Z,8.02
2022-08-26T20:49:52.324Z,13.15
2022-08-26T20:52:20.858Z,8.02
2022-08-26T20:54:48.617Z,9.63
2022-08-26T20:57:16.321Z,10.85
2022-08-26T20:59:44.385Z,12.15
2022-08-26T21:02:12.568Z,6.28
2022-08-26T21:04:40.661Z,11.73
2022-08-26T21:07:08.458Z,9.73
2022-08-26T21:09:36.757Z,10.10
2022-08-26T21:12:06.192Z,8.10
2022-08-26T21:14:34.232Z,8.65
2022-08-26T21:17:03.023Z,16.35
2022-08-26T21:19:31.072Z,11.60
2022-08-26T21:24:28.495Z,10.70
2022-08-26T21:26:56.341Z,10.88
2022-08-26T21:29:24.607Z,8.07
2022-08-26T21:31:52.426Z,13.05
2022-08-26T21:36:48.623Z,17.08
2022-08-26T21:39:16.987Z,12.23
2022-08-26T21:41:45.619Z,20.50
2022-08-26T21:44:14.990Z,8.73
2022-08-26T21:46:44.477Z,13.82
2022-08-26T21:49:15.751Z,12.43
2022-08-26T21:51:46.375Z,10.48
2022-08-26T21:54:15.284Z,14.02
2022-08-26T21:56:46.662Z,13.07
2022-08-26T21:59:19.378Z,11.27
2022-08-26T22:01:47.559Z,15.57
2022-08-26T22:04:15.947Z,14.38
2022-08-26T22:06:54.691Z,12.27
2022-08-26T22:09:25.802Z,12.90
2022-08-26T22:11:56.879Z,9.20
2022-08-26T22:14:30.754Z,18.83
2022-08-26T22:16:59.822Z,15.88
2022-08-26T22:19:28.332Z,12.23
2022-08-26T22:21:56.610Z,12.45
2022-08-26T22:24:26.515Z,11.85
2022-08-26T22:26:55.304Z,15.23
2022-08-26T22:29:24.471Z,12.38
2022-08-26T22:31:52.458Z,11.45
2022-08-26T22:34:21.275Z,13.57
2022-08-26T22:36:50.462Z,10.65
2022-08-26T22:39:21.659Z,15.23
2022-08-26T22:41:49.970Z,16.48
2022-08-26T22:44:19.538Z,14.23
2022-08-26T22:46:47.332Z,12.45
2022-08-26T22:49:18.865Z,13.48
2022-08-26T22:51:47.088Z,14.45
2022-08-26T22:54:16.591Z,17.15
2022-08-26T22:56:45.123Z,13.60
2022-08-26T22:59:13.558Z,11.70
2022-08-26T23:01:43.333Z,16.05
2022-08-26T23:04:11.887Z,16.83
2022-08-26T23:06:43.237Z,15.38
2022-08-26T23:09:18.539Z,19.35
2022-08-26T23:11:48.468Z,13.30
2022-08-26T23:14:18.353Z,14.38
2022-08-26T23:16:47.478Z,17.38
2022-08-26T23:19:17.863Z,19.95
2022-08-26T23:21:46.152Z,17.98
2022-08-26T23:24:14.584Z,22.65
2022-08-26T23:26:43.359Z,20.65
2022-08-26T23:29:13.236Z,17.20
2022-08-26T23:31:42.909Z,17.08
2022-08-26T23:34:29.970Z,18.67
2022-08-26T23:36:59.117Z,15.32
2022-08-26T23:39:28.119Z,20.98
2022-08-26T23:41:56.929Z,23.45
2022-08-26T23:44:26.604Z,16.95
2022-08-26T23:46:55.862Z,24.65
2022-08-26T23:49:24.414Z,22.02
2022-08-26T23:52:11.549Z,22.60
2022-08-26T23:54:40.405Z,21.60
2022-08-26T23:57:09.368Z,21.88
2022-08-26T23:59:40.681Z,30.52
